sensor_id;sensor_type;location;lat;lon;timestamp;pressure;altitude;pressure_sealevel;temperature;humidity
61786;BME280;47692;53.714;11.372;2022-12-18T00:01:46;102432.97;;;-7.38;100.00
61786;BME280;47692;53.714;11.372;2022-12-18T00:04:20;102439.56;;;-7.40;100.00
61786;BME280;47692;53.714;11.372;2022-12-18T00:06:45;102434.13;;;-7.45;100.00
61786;BME280;47692;53.714;11.372;2022-12-18T00:09:10;102439.91;;;-7.58;100.00
61786;BME280;47692;53.714;11.372;2022-12-18T00:11:36;102434.94;;;-7.56;100.00
61786;BME280;47692;53.714;11.372;2022-12-18T00:14:01;102436.84;;;-7.54;100.00
61786;BME280;47692;53.714;11.372;2022-12-18T00:16:28;102436.31;;;-7.50;100.00
61786;BME280;47692;53.714;11.372;2022-12-18T00:18:59;102445.03;;;-7.46;100.00
61786;BME280;47692;53.714;11.372;2022-12-18T00:21:26;102441.69;;;-7.57;100.00
61786;BME280;47692;53.714;11.372;2022-12-18T00:23:52;102441.69;;;-7.57;100.00
61786;BME280;47692;53.714;11.372;2022-12-18T00:26:18;102447.25;;;-7.61;100.00
61786;BME280;47692;53.714;11.372;2022-12-18T00:28:45;102455.94;;;-7.69;100.00
61786;BME280;47692;53.714;11.372;2022-12-18T00:31:14;102461.16;;;-7.78;100.00
61786;BME280;47692;53.714;11.372;2022-12-18T00:33:39;102460.03;;;-7.82;100.00
61786;BME280;47692;53.714;11.372;2022-12-18T00:36:14;102458.25;;;-7.83;100.00
61786;BME280;47692;53.714;11.372;2022-12-18T00:38:40;102450.81;;;-7.91;100.00
61786;BME280;47692;53.714;11.372;2022-12-18T00:41:07;102443.84;;;-7.94;100.00
61786;BME280;47692;53.714;11.372;2022-12-18T00:43:36;102447.78;;;-7.98;100.00
61786;BME280;47692;53.714;11.372;2022-12-18T00:46:01;102444.00;;;-8.03;100.00
61786;BME280;47692;53.714;11.372;2022-12-18T00:48:27;102440.16;;;-7.98;100.00
61786;BME280;47692;53.714;11.372;2022-12-18T00:50:52;102449.69;;;-8.05;100.00
61786;BME280;47692;53.714;11.372;2022-12-18T00:53:17;102446.38;;;-8.04;100.00
61786;BME280;47692;53.714;11.372;2022-12-18T00:55:44;102445.75;;;-8.02;100.00
61786;BME280;47692;53.714;11.372;2022-12-18T00:58:11;102453.00;;;-8.06;100.00
61786;BME280;47692;53.714;11.372;2022-12-18T01:00:37;102459.69;;;-8.07;100.00
61786;BME280;47692;53.714;11.372;2022-12-18T01:03:03;102463.50;;;-8.12;100.00
61786;BME280;47692;53.714;11.372;2022-12-18T01:05:28;102472.78;;;-8.13;100.00
61786;BME280;47692;53.714;11.372;2022-12-18T01:07:55;102465.16;;;-8.13;100.00
61786;BME280;47692;53.714;11.372;2022-12-18T01:10:20;102462.00;;;-8.10;100.00
61786;BME280;47692;53.714;11.372;2022-12-18T01:12:45;102462.22;;;-8.07;100.00
61786;BME280;47692;53.714;11.372;2022-12-18T01:15:12;102466.66;;;-8.04;100.00
61786;BME280;47692;53.714;11.372;2022-12-18T01:17:38;102467.94;;;-8.09;100.00
61786;BME280;47692;53.714;11.372;2022-12-18T01:20:04;102477.81;;;-8.02;100.00
61786;BME280;47692;53.714;11.372;2022-12-18T01:22:30;102489.84;;;-8.00;100.00
61786;BME280;47692;53.714;11.372;2022-12-18T01:24:55;102498.47;;;-7.98;100.00
61786;BME280;47692;53.714;11.372;2022-12-18T01:27:20;102501.13;;;-7.96;100.00
61786;BME280;47692;53.714;11.372;2022-12-18T01:29:46;102501.13;;;-7.96;100.00
61786;BME280;47692;53.714;11.372;2022-12-18T01:32:11;102500.25;;;-7.97;100.00
61786;BME280;47692;53.714;11.372;2022-12-18T01:34:37;102501.28;;;-8.05;100.00
61786;BME280;47692;53.714;11.372;2022-12-18T01:37:05;102507.22;;;-8.04;100.00
61786;BME280;47692;53.714;11.372;2022-12-18T01:39:31;102505.59;;;-8.14;100.00
61786;BME280;47692;53.714;11.372;2022-12-18T01:41:58;102510.53;;;-8.05;100.00
61786;BME280;47692;53.714;11.372;2022-12-18T01:47:21;102499.38;;;-8.07;100.00
61786;BME280;47692;53.714;11.372;2022-12-18T01:49:48;102488.22;;;-8.09;100.00
61786;BME280;47692;53.714;11.372;2022-12-18T01:52:14;102489.50;;;-8.15;100.00
61786;BME280;47692;53.714;11.372;2022-12-18T01:54:40;102490.78;;;-8.20;100.00
61786;BME280;47692;53.714;11.372;2022-12-18T01:57:06;102493.28;;;-8.09;100.00
61786;BME280;47692;53.714;11.372;2022-12-18T01:59:32;102497.88;;;-8.05;100.00
61786;BME280;47692;53.714;11.372;2022-12-18T02:01:59;102498.00;;;-8.14;100.00
61786;BME280;47692;53.714;11.372;2022-12-18T02:04:26;102495.06;;;-8.08;100.00
61786;BME280;47692;53.714;11.372;2022-12-18T02:10:02;102495.56;;;-8.02;100.00
61786;BME280;47692;53.714;11.372;2022-12-18T02:15:44;102493.66;;;-8.05;100.00
61786;BME280;47692;53.714;11.372;2022-12-18T02:18:32;102483.78;;;-8.12;100.00
61786;BME280;47692;53.714;11.372;2022-12-18T02:23:42;102462.78;;;-8.21;100.00
61786;BME280;47692;53.714;11.372;2022-12-18T02:26:26;102454.16;;;-8.23;100.00
61786;BME280;47692;53.714;11.372;2022-12-18T02:28:58;102451.00;;;-8.31;100.00
61786;BME280;47692;53.714;11.372;2022-12-18T02:31:31;102459.22;;;-8.34;100.00
61786;BME280;47692;53.714;11.372;2022-12-18T02:34:02;102465.94;;;-8.34;100.00
61786;BME280;47692;53.714;11.372;2022-12-18T02:36:29;102475.44;;;-8.42;100.00
61786;BME280;47692;53.714;11.372;2022-12-18T02:38:58;102482.94;;;-8.44;100.00
61786;BME280;47692;53.714;11.372;2022-12-18T02:41:25;102479.88;;;-8.39;100.00
61786;BME280;47692;53.714;11.372;2022-12-18T02:43:59;102482.41;;;-8.39;100.00
61786;BME280;47692;53.714;11.372;2022-12-18T02:48:57;102487.47;;;-8.39;100.00
61786;BME280;47692;53.714;11.372;2022-12-18T02:51:30;102489.41;;;-8.47;100.00
61786;BME280;47692;53.714;11.372;2022-12-18T02:54:10;102490.91;;;-8.49;100.00
61786;BME280;47692;53.714;11.372;2022-12-18T02:56:49;102502.59;;;-8.51;100.00
61786;BME280;47692;53.714;11.372;2022-12-18T02:59:23;102494.59;;;-8.56;100.00
61786;BME280;47692;53.714;11.372;2022-12-18T03:01:57;102486.50;;;-8.52;100.00
61786;BME280;47692;53.714;11.372;2022-12-18T03:04:28;102486.72;;;-8.59;100.00
61786;BME280;47692;53.714;11.372;2022-12-18T03:06:58;102495.47;;;-8.55;100.00
61786;BME280;47692;53.714;11.372;2022-12-18T03:09:32;102497.03;;;-8.57;100.00
61786;BME280;47692;53.714;11.372;2022-12-18T03:12:15;102501.06;;;-8.59;100.00
61786;BME280;47692;53.714;11.372;2022-12-18T03:17:20;102518.66;;;-8.61;100.00
61786;BME280;47692;53.714;11.372;2022-12-18T03:19:49;102529.03;;;-8.58;100.00
61786;BME280;47692;53.714;11.372;2022-12-18T03:22:17;102527.03;;;-8.62;100.00
61786;BME280;47692;53.714;11.372;2022-12-18T03:24:44;102529.03;;;-8.68;100.00
61786;BME280;47692;53.714;11.372;2022-12-18T03:27:13;102525.75;;;-8.78;100.00
61786;BME280;47692;53.714;11.372;2022-12-18T03:29:47;102528.16;;;-8.69;100.00
61786;BME280;47692;53.714;11.372;2022-12-18T03:32:33;102532.44;;;-8.78;100.00
61786;BME280;47692;53.714;11.372;2022-12-18T03:35:04;102536.47;;;-8.80;100.00
61786;BME280;47692;53.714;11.372;2022-12-18T03:37:30;102535.59;;;-8.81;100.00
61786;BME280;47692;53.714;11.372;2022-12-18T03:39:56;102536.09;;;-8.85;100.00
61786;BME280;47692;53.714;11.372;2022-12-18T03:42:32;102526.84;;;-8.84;100.00
61786;BME280;47692;53.714;11.372;2022-12-18T03:47:39;102526.31;;;-8.90;100.00
61786;BME280;47692;53.714;11.372;2022-12-18T03:50:12;102532.28;;;-8.90;100.00
61786;BME280;47692;53.714;11.372;2022-12-18T03:53:03;102534.03;;;-8.89;100.00
61786;BME280;47692;53.714;11.372;2022-12-18T03:55:32;102531.91;;;-8.84;100.00
61786;BME280;47692;53.714;11.372;2022-12-18T03:58:01;102532.41;;;-8.88;100.00
61786;BME280;47692;53.714;11.372;2022-12-18T04:00:28;102543.91;;;-8.92;100.00
61786;BME280;47692;53.714;11.372;2022-12-18T04:02:55;102550.75;;;-8.91;100.00
61786;BME280;47692;53.714;11.372;2022-12-18T04:05:23;102540.56;;;-9.01;100.00
61786;BME280;47692;53.714;11.372;2022-12-18T04:07:51;102542.22;;;-9.02;100.00
61786;BME280;47692;53.714;11.372;2022-12-18T04:10:18;102542.75;;;-9.06;100.00
61786;BME280;47692;53.714;11.372;2022-12-18T04:12:43;102540.84;;;-9.08;100.00
61786;BME280;47692;53.714;11.372;2022-12-18T04:15:09;102541.72;;;-9.08;100.00
61786;BME280;47692;53.714;11.372;2022-12-18T04:17:35;102543.38;;;-9.08;100.00
61786;BME280;47692;53.714;11.372;2022-12-18T04:20:00;102551.19;;;-9.05;100.00
61786;BME280;47692;53.714;11.372;2022-12-18T04:22:26;102545.41;;;-9.04;100.00
61786;BME280;47692;53.714;11.372;2022-12-18T04:24:52;102540.56;;;-9.12;100.00
61786;BME280;47692;53.714;11.372;2022-12-18T04:27:17;102540.69;;;-9.10;100.00
61786;BME280;47692;53.714;11.372;2022-12-18T04:29:42;102535.78;;;-9.08;100.00
61786;BME280;47692;53.714;11.372;2022-12-18T04:32:08;102534.63;;;-9.12;100.00
61786;BME280;47692;53.714;11.372;2022-12-18T04:34:33;102541.59;;;-9.10;100.00
61786;BME280;47692;53.714;11.372;2022-12-18T04:36:59;102528.94;;;-9.10;100.00
61786;BME280;47692;53.714;11.372;2022-12-18T04:39:24;102528.94;;;-9.10;100.00
61786;BME280;47692;53.714;11.372;2022-12-18T04:41:49;102526.34;;;-9.20;100.00
61786;BME280;47692;53.714;11.372;2022-12-18T04:44:15;102523.06;;;-9.19;100.00
61786;BME280;47692;53.714;11.372;2022-12-18T04:46:40;102534.22;;;-9.17;100.00
61786;BME280;47692;53.714;11.372;2022-12-18T04:49:06;102528.00;;;-9.20;100.00
61786;BME280;47692;53.714;11.372;2022-12-18T04:51:31;102524.06;;;-9.27;100.00
61786;BME280;47692;53.714;11.372;2022-12-18T04:53:56;102531.50;;;-9.29;100.00
61786;BME280;47692;53.714;11.372;2022-12-18T04:56:22;102534.94;;;-9.28;100.00
61786;BME280;47692;53.714;11.372;2022-12-18T04:58:47;102534.44;;;-9.24;100.00
61786;BME280;47692;53.714;11.372;2022-12-18T05:01:14;102540.03;;;-9.18;100.00
61786;BME280;47692;53.714;11.372;2022-12-18T05:03:39;102552.44;;;-9.21;100.00
61786;BME280;47692;53.714;11.372;2022-12-18T05:06:05;102559.72;;;-9.24;100.00
61786;BME280;47692;53.714;11.372;2022-12-18T05:08:32;102562.75;;;-9.28;100.00
61786;BME280;47692;53.714;11.372;2022-12-18T05:11:11;102563.63;;;-9.28;100.00
61786;BME280;47692;53.714;11.372;2022-12-18T05:13:39;102556.19;;;-9.26;100.00
61786;BME280;47692;53.714;11.372;2022-12-18T05:16:05;102556.19;;;-9.26;100.00
61786;BME280;47692;53.714;11.372;2022-12-18T05:18:31;102558.84;;;-9.24;100.00
61786;BME280;47692;53.714;11.372;2022-12-18T05:20:56;102553.78;;;-9.24;100.00
61786;BME280;47692;53.714;11.372;2022-12-18T05:23:23;102552.34;;;-9.31;100.00
61786;BME280;47692;53.714;11.372;2022-12-18T05:25:59;102543.75;;;-9.33;100.00
61786;BME280;47692;53.714;11.372;2022-12-18T05:28:27;102550.19;;;-9.37;100.00
61786;BME280;47692;53.714;11.372;2022-12-18T05:30:56;102553.34;;;-9.39;100.00
61786;BME280;47692;53.714;11.372;2022-12-18T05:33:23;102553.59;;;-9.36;100.00
61786;BME280;47692;53.714;11.372;2022-12-18T05:35:53;102562.22;;;-9.34;100.00
61786;BME280;47692;53.714;11.372;2022-12-18T05:38:19;102553.38;;;-9.29;100.00
61786;BME280;47692;53.714;11.372;2022-12-18T05:40:45;102545.78;;;-9.29;100.00
61786;BME280;47692;53.714;11.372;2022-12-18T05:43:11;102550.59;;;-9.32;100.00
61786;BME280;47692;53.714;11.372;2022-12-18T05:45:37;102553.59;;;-9.36;100.00
61786;BME280;47692;53.714;11.372;2022-12-18T05:48:03;102547.53;;;-9.38;100.00
61786;BME280;47692;53.714;11.372;2022-12-18T05:50:28;102547.03;;;-9.34;100.00
61786;BME280;47692;53.714;11.372;2022-12-18T05:52:54;102561.25;;;-9.26;100.00
61786;BME280;47692;53.714;11.372;2022-12-18T05:55:19;102574.38;;;-9.30;100.00
61786;BME280;47692;53.714;11.372;2022-12-18T05:57:44;102588.41;;;-9.34;100.00
61786;BME280;47692;53.714;11.372;2022-12-18T06:00:10;102583.88;;;-9.28;100.00
61786;BME280;47692;53.714;11.372;2022-12-18T06:02:36;102578.97;;;-9.26;100.00
61786;BME280;47692;53.714;11.372;2022-12-18T06:05:01;102581.75;;;-9.23;99.78
61786;BME280;47692;53.714;11.372;2022-12-18T06:07:26;102579.72;;;-9.27;99.73
61786;BME280;47692;53.714;11.372;2022-12-18T06:09:52;102584.03;;;-9.26;99.36
61786;BME280;47692;53.714;11.372;2022-12-18T06:12:17;102580.59;;;-9.27;99.43
61786;BME280;47692;53.714;11.372;2022-12-18T06:14:42;102586.56;;;-9.26;99.78
61786;BME280;47692;53.714;11.372;2022-12-18T06:17:08;102586.56;;;-9.26;100.00
61786;BME280;47692;53.714;11.372;2022-12-18T06:19:33;102590.09;;;-9.24;100.00
61786;BME280;47692;53.714;11.372;2022-12-18T06:21:59;102585.53;;;-9.28;100.00
61786;BME280;47692;53.714;11.372;2022-12-18T06:24:24;102596.16;;;-9.32;100.00
61786;BME280;47692;53.714;11.372;2022-12-18T06:26:50;102587.78;;;-9.31;100.00
61786;BME280;47692;53.714;11.372;2022-12-18T06:29:15;102585.03;;;-9.24;100.00
61786;BME280;47692;53.714;11.372;2022-12-18T06:31:40;102576.44;;;-9.26;100.00
61786;BME280;47692;53.714;11.372;2022-12-18T06:34:06;102589.91;;;-9.36;100.00
61786;BME280;47692;53.714;11.372;2022-12-18T06:36:31;102579.94;;;-9.34;100.00
61786;BME280;47692;53.714;11.372;2022-12-18T06:38:57;102584.25;;;-9.33;100.00
61786;BME280;47692;53.714;11.372;2022-12-18T06:41:22;102583.09;;;-9.37;100.00
61786;BME280;47692;53.714;11.372;2022-12-18T06:43:48;102577.41;;;-9.34;100.00
61786;BME280;47692;53.714;11.372;2022-12-18T06:46:13;102575.41;;;-9.28;100.00
61786;BME280;47692;53.714;11.372;2022-12-18T06:48:39;102579.09;;;-9.24;100.00
61786;BME280;47692;53.714;11.372;2022-12-18T06:51:04;102581.50;;;-9.26;100.00
61786;BME280;47692;53.714;11.372;2022-12-18T06:53:31;102592.09;;;-9.30;100.00
61786;BME280;47692;53.714;11.372;2022-12-18T06:56:04;102585.03;;;-9.24;100.00
61786;BME280;47692;53.714;11.372;2022-12-18T06:58:29;102579.97;;;-9.24;100.00
61786;BME280;47692;53.714;11.372;2022-12-18T07:01:03;102591.13;;;-9.22;100.00
61786;BME280;47692;53.714;11.372;2022-12-18T07:03:28;102599.97;;;-9.27;100.00
61786;BME280;47692;53.714;11.372;2022-12-18T07:05:54;102595.66;;;-9.28;100.00
61786;BME280;47692;53.714;11.372;2022-12-18T07:08:19;102607.00;;;-9.33;100.00
61786;BME280;47692;53.714;11.372;2022-12-18T07:10:45;102613.22;;;-9.30;100.00
61786;BME280;47692;53.714;11.372;2022-12-18T07:13:10;102619.91;;;-9.30;100.00
61786;BME280;47692;53.714;11.372;2022-12-18T07:15:36;102627.25;;;-9.33;100.00
61786;BME280;47692;53.714;11.372;2022-12-18T07:18:01;102628.53;;;-9.28;100.00
61786;BME280;47692;53.714;11.372;2022-12-18T07:20:26;102635.84;;;-9.31;100.00
61786;BME280;47692;53.714;11.372;2022-12-18T07:22:52;102634.97;;;-9.32;100.00
61786;BME280;47692;53.714;11.372;2022-12-18T07:25:17;102630.03;;;-9.30;100.00
61786;BME280;47692;53.714;11.372;2022-12-18T07:27:42;102635.09;;;-9.30;100.00
61786;BME280;47692;53.714;11.372;2022-12-18T07:30:08;102629.28;;;-9.29;100.00
61786;BME280;47692;53.714;11.372;2022-12-18T07:32:34;102623.97;;;-9.32;100.00
61786;BME280;47692;53.714;11.372;2022-12-18T07:34:59;102624.72;;;-9.33;100.00
61786;BME280;47692;53.714;11.372;2022-12-18T07:37:25;102631.56;;;-9.32;100.00
61786;BME280;47692;53.714;11.372;2022-12-18T07:39:50;102632.69;;;-9.29;100.00
61786;BME280;47692;53.714;11.372;2022-12-18T07:42:15;102645.97;;;-9.31;100.00
61786;BME280;47692;53.714;11.372;2022-12-18T07:44:56;102639.91;;;-9.33;100.00
61786;BME280;47692;53.714;11.372;2022-12-18T07:47:22;102636.63;;;-9.32;100.00
61786;BME280;47692;53.714;11.372;2022-12-18T07:49:47;102640.34;;;-9.37;100.00
61786;BME280;47692;53.714;11.372;2022-12-18T07:52:12;102645.22;;;-9.30;100.00
61786;BME280;47692;53.714;11.372;2022-12-18T07:54:38;102649.72;;;-9.36;100.00
61786;BME280;47692;53.714;11.372;2022-12-18T07:57:04;102650.91;;;-9.33;100.00
61786;BME280;47692;53.714;11.372;2022-12-18T07:59:29;102659.66;;;-9.29;100.00
61786;BME280;47692;53.714;11.372;2022-12-18T08:01:54;102663.69;;;-9.31;99.99
61786;BME280;47692;53.714;11.372;2022-12-18T08:04:20;102664.16;;;-9.35;99.94
61786;BME280;47692;53.714;11.372;2022-12-18T08:06:45;102665.66;;;-9.37;99.77
61786;BME280;47692;53.714;11.372;2022-12-18T08:09:11;102666.56;;;-9.37;99.93
61786;BME280;47692;53.714;11.372;2022-12-18T08:11:36;102661.94;;;-9.32;100.00
61786;BME280;47692;53.714;11.372;2022-12-18T08:14:02;102662.50;;;-9.35;99.92
61786;BME280;47692;53.714;11.372;2022-12-18T08:16:27;102663.69;;;-9.31;100.00
61786;BME280;47692;53.714;11.372;2022-12-18T08:18:53;102673.19;;;-9.29;100.00
61786;BME280;47692;53.714;11.372;2022-12-18T08:21:21;102669.28;;;-9.25;100.00
61786;BME280;47692;53.714;11.372;2022-12-18T08:23:48;102667.16;;;-9.20;100.00
61786;BME280;47692;53.714;11.372;2022-12-18T08:26:14;102666.91;;;-9.23;99.95
61786;BME280;47692;53.714;11.372;2022-12-18T08:28:40;102656.16;;;-9.21;99.93
61786;BME280;47692;53.714;11.372;2022-12-18T08:31:06;102657.59;;;-9.14;100.00
61786;BME280;47692;53.714;11.372;2022-12-18T08:33:32;102662.09;;;-9.20;99.85
61786;BME280;47692;53.714;11.372;2022-12-18T08:36:01;102670.66;;;-9.10;99.79
61786;BME280;47692;53.714;11.372;2022-12-18T08:38:27;102667.63;;;-9.05;99.66
61786;BME280;47692;53.714;11.372;2022-12-18T08:41:00;102664.06;;;-9.07;99.52
61786;BME280;47692;53.714;11.372;2022-12-18T08:43:26;102659.28;;;-9.04;99.48
61786;BME280;47692;53.714;11.372;2022-12-18T08:46:10;102662.50;;;-8.97;99.80
61786;BME280;47692;53.714;11.372;2022-12-18T08:48:35;102667.97;;;-8.92;99.48
61786;BME280;47692;53.714;11.372;2022-12-18T08:51:01;102647.22;;;-8.88;99.61
61786;BME280;47692;53.714;11.372;2022-12-18T08:53:27;102651.53;;;-8.87;99.45
61786;BME280;47692;53.714;11.372;2022-12-18T08:55:52;102658.16;;;-8.79;99.63
61786;BME280;47692;53.714;11.372;2022-12-18T08:58:18;102665.78;;;-8.68;99.97
61786;BME280;47692;53.714;11.372;2022-12-18T09:00:44;102663.03;;;-8.61;100.00
61786;BME280;47692;53.714;11.372;2022-12-18T09:03:17;102667.13;;;-8.42;100.00
61786;BME280;47692;53.714;11.372;2022-12-18T09:05:43;102655.75;;;-8.27;99.97
61786;BME280;47692;53.714;11.372;2022-12-18T09:08:09;102658.06;;;-8.20;99.90
61786;BME280;47692;53.714;11.372;2022-12-18T09:10:41;102657.69;;;-8.14;98.83
61786;BME280;47692;53.714;11.372;2022-12-18T09:13:07;102663.88;;;-8.11;98.25
61786;BME280;47692;53.714;11.372;2022-12-18T09:15:32;102658.56;;;-8.14;97.36
61786;BME280;47692;53.714;11.372;2022-12-18T09:17:57;102658.81;;;-8.21;96.95
61786;BME280;47692;53.714;11.372;2022-12-18T09:20:22;102656.53;;;-8.18;97.11
61786;BME280;47692;53.714;11.372;2022-12-18T09:22:48;102658.28;;;-8.17;97.24
61786;BME280;47692;53.714;11.372;2022-12-18T09:25:13;102658.06;;;-8.20;96.96
61786;BME280;47692;53.714;11.372;2022-12-18T09:27:38;102654.25;;;-8.25;96.93
61786;BME280;47692;53.714;11.372;2022-12-18T09:30:04;102655.16;;;-8.14;97.26
61786;BME280;47692;53.714;11.372;2022-12-18T09:32:30;102648.44;;;-8.14;97.27
61786;BME280;47692;53.714;11.372;2022-12-18T09:34:55;102662.38;;;-8.08;97.56
61786;BME280;47692;53.714;11.372;2022-12-18T09:37:21;102648.94;;;-8.07;97.06
61786;BME280;47692;53.714;11.372;2022-12-18T09:39:46;102663.63;;;-8.14;97.21
61786;BME280;47692;53.714;11.372;2022-12-18T09:42:20;102661.72;;;-8.16;96.84
61786;BME280;47692;53.714;11.372;2022-12-18T09:44:50;102667.44;;;-8.08;97.01
61786;BME280;47692;53.714;11.372;2022-12-18T09:47:27;102654.25;;;-8.04;97.37
61786;BME280;47692;53.714;11.372;2022-12-18T09:49:58;102654.25;;;-8.04;97.49
61786;BME280;47692;53.714;11.372;2022-12-18T09:52:32;102647.03;;;-8.00;97.67
61786;BME280;47692;53.714;11.372;2022-12-18T09:55:06;102653.41;;;-7.84;97.68
61786;BME280;47692;53.714;11.372;2022-12-18T09:57:39;102656.56;;;-7.76;97.43
61786;BME280;47692;53.714;11.372;2022-12-18T10:00:16;102655.31;;;-7.71;97.30
61786;BME280;47692;53.714;11.372;2022-12-18T10:02:43;102657.31;;;-7.67;97.22
61786;BME280;47692;53.714;11.372;2022-12-18T10:05:13;102655.56;;;-7.68;96.95
61786;BME280;47692;53.714;11.372;2022-12-18T10:07:57;102657.84;;;-7.61;96.79
61786;BME280;47692;53.714;11.372;2022-12-18T10:10:47;102655.03;;;-7.54;96.47
61786;BME280;47692;53.714;11.372;2022-12-18T10:13:19;102655.03;;;-7.54;96.31
61786;BME280;47692;53.714;11.372;2022-12-18T10:21:26;102665.88;;;-7.03;96.14
61786;BME280;47692;53.714;11.372;2022-12-18T10:26:31;102659.25;;;-6.91;95.46
61786;BME280;47692;53.714;11.372;2022-12-18T10:28:58;102662.97;;;-6.75;95.42
61786;BME280;47692;53.714;11.372;2022-12-18T10:31:24;102662.97;;;-6.75;94.75
61786;BME280;47692;53.714;11.372;2022-12-18T10:33:50;102667.41;;;-6.62;94.53
61786;BME280;47692;53.714;11.372;2022-12-18T10:36:16;102661.63;;;-6.50;94.36
61786;BME280;47692;53.714;11.372;2022-12-18T10:38:41;102667.19;;;-6.43;94.23
61786;BME280;47692;53.714;11.372;2022-12-18T10:43:47;102675.78;;;-6.19;93.03
61786;BME280;47692;53.714;11.372;2022-12-18T10:46:15;102675.50;;;-6.12;92.63
61786;BME280;47692;53.714;11.372;2022-12-18T10:48:50;102678.41;;;-6.07;92.31
61786;BME280;47692;53.714;11.372;2022-12-18T10:51:23;102675.69;;;-5.87;92.15
61786;BME280;47692;53.714;11.372;2022-12-18T10:53:55;102667.69;;;-5.57;91.79
61786;BME280;47692;53.714;11.372;2022-12-18T10:56:22;102666.63;;;-5.49;91.18
61786;BME280;47692;53.714;11.372;2022-12-18T10:59:15;102678.38;;;-5.39;90.38
61786;BME280;47692;53.714;11.372;2022-12-18T11:04:17;102679.72;;;-5.21;89.23
61786;BME280;47692;53.714;11.372;2022-12-18T11:07:07;102674.19;;;-5.03;88.97
61786;BME280;47692;53.714;11.372;2022-12-18T11:09:36;102672.41;;;-5.04;88.14
61786;BME280;47692;53.714;11.372;2022-12-18T11:12:15;102679.03;;;-5.06;88.64
61786;BME280;47692;53.714;11.372;2022-12-18T11:14:48;102679.81;;;-4.95;88.20
61786;BME280;47692;53.714;11.372;2022-12-18T11:17:33;102673.19;;;-5.05;87.48
61786;BME280;47692;53.714;11.372;2022-12-18T11:20:29;102671.16;;;-5.21;87.88
61786;BME280;47692;53.714;11.372;2022-12-18T11:23:04;102668.66;;;-5.09;88.22
61786;BME280;47692;53.714;11.372;2022-12-18T11:25:32;102667.09;;;-4.83;88.29
61786;BME280;47692;53.714;11.372;2022-12-18T11:28:04;102671.72;;;-4.66;87.95
61786;BME280;47692;53.714;11.372;2022-12-18T11:30:32;102676.59;;;-4.57;87.07
61786;BME280;47692;53.714;11.372;2022-12-18T11:33:14;102672.50;;;-4.79;86.48
61786;BME280;47692;53.714;11.372;2022-12-18T11:35:53;102671.06;;;-4.75;86.62
61786;BME280;47692;53.714;11.372;2022-12-18T11:38:27;102665.06;;;-4.64;87.33
61786;BME280;47692;53.714;11.372;2022-12-18T11:43:44;102667.75;;;-4.74;87.24
61786;BME280;47692;53.714;11.372;2022-12-18T11:46:34;102669.84;;;-4.80;86.96
61786;BME280;47692;53.714;11.372;2022-12-18T11:49:07;102668.88;;;-4.94;87.38
61786;BME280;47692;53.714;11.372;2022-12-18T11:51:51;102669.06;;;-4.91;88.00
61786;BME280;47692;53.714;11.372;2022-12-18T11:54:18;102660.63;;;-4.66;87.60
61786;BME280;47692;53.714;11.372;2022-12-18T11:56:48;102649.94;;;-4.37;87.94
61786;BME280;47692;53.714;11.372;2022-12-18T12:02:27;102635.81;;;-4.57;86.61
61786;BME280;47692;53.714;11.372;2022-12-18T12:05:16;102646.00;;;-4.69;86.81
61786;BME280;47692;53.714;11.372;2022-12-18T12:16:00;102642.69;;;-5.51;89.05
61786;BME280;47692;53.714;11.372;2022-12-18T12:18:40;102647.31;;;-5.57;89.81
61786;BME280;47692;53.714;11.372;2022-12-18T12:32:00;102639.28;;;-5.86;91.16
61786;BME280;47692;53.714;11.372;2022-12-18T12:34:33;102642.06;;;-5.82;92.19
61786;BME280;47692;53.714;11.372;2022-12-18T12:37:14;102642.25;;;-5.57;92.03
61786;BME280;47692;53.714;11.372;2022-12-18T12:39:44;102638.97;;;-5.44;91.65
61786;BME280;47692;53.714;11.372;2022-12-18T12:42:26;102620.75;;;-5.61;91.65
61786;BME280;47692;53.714;11.372;2022-12-18T12:45:22;102610.38;;;-5.52;92.05
61786;BME280;47692;53.714;11.372;2022-12-18T12:47:49;102607.50;;;-5.57;91.97
61786;BME280;47692;53.714;11.372;2022-12-18T12:50:18;102604.97;;;-5.57;92.01
61786;BME280;47692;53.714;11.372;2022-12-18T12:52:47;102599.19;;;-5.66;92.03
61786;BME280;47692;53.714;11.372;2022-12-18T12:55:32;102612.59;;;-5.57;92.74
61786;BME280;47692;53.714;11.372;2022-12-18T12:58:08;102607.16;;;-5.61;92.99
61786;BME280;47692;53.714;11.372;2022-12-18T13:03:54;102599.41;;;-5.63;92.93
61786;BME280;47692;53.714;11.372;2022-12-18T13:06:39;102600.19;;;-5.64;93.21
61786;BME280;47692;53.714;11.372;2022-12-18T13:09:07;102588.53;;;-5.72;92.97
61786;BME280;47692;53.714;11.372;2022-12-18T13:11:50;102582.69;;;-5.71;93.26
61786;BME280;47692;53.714;11.372;2022-12-18T13:14:39;102579.38;;;-5.70;93.71
61786;BME280;47692;53.714;11.372;2022-12-18T13:19:39;102572.06;;;-5.77;93.91
61786;BME280;47692;53.714;11.372;2022-12-18T13:22:20;102568.28;;;-5.82;94.44
61786;BME280;47692;53.714;11.372;2022-12-18T13:24:46;102555.56;;;-5.82;95.01
61786;BME280;47692;53.714;11.372;2022-12-18T13:36:31;102550.59;;;-5.81;96.70
61786;BME280;47692;53.714;11.372;2022-12-18T13:41:45;102534.91;;;-5.75;96.45
61786;BME280;47692;53.714;11.372;2022-12-18T13:44:39;102524.94;;;-5.72;97.11
61786;BME280;47692;53.714;11.372;2022-12-18T13:47:26;102514.53;;;-5.75;96.83
61786;BME280;47692;53.714;11.372;2022-12-18T13:49:53;102514.75;;;-5.72;97.18
61786;BME280;47692;53.714;11.372;2022-12-18T13:52:28;102516.53;;;-5.71;97.53
61786;BME280;47692;53.714;11.372;2022-12-18T13:54:56;102520.28;;;-5.66;97.62
61786;BME280;47692;53.714;11.372;2022-12-18T13:57:34;102510.34;;;-5.63;97.94
61786;BME280;47692;53.714;11.372;2022-12-18T14:02:45;102508.56;;;-5.64;98.18